createdAt,value
2022-10-14T00:01:27.888Z,15.68
2022-10-14T00:03:57.565Z,15.64
2022-10-14T00:06:27.359Z,15.50
2022-10-14T00:08:56.101Z,15.49
2022-10-14T00:11:25.881Z,15.40
2022-10-14T00:13:56.647Z,15.34
2022-10-14T00:16:29.538Z,15.24
2022-10-14T00:18:57.880Z,15.11
2022-10-14T00:21:27.354Z,15.06
2022-10-14T00:23:55.629Z,15.07
2022-10-14T00:26:27.329Z,15.00
2022-10-14T00:28:55.989Z,15.00
2022-10-14T00:31:24.338Z,14.91
2022-10-14T00:33:53.748Z,14.89
2022-10-14T00:36:22.887Z,14.80
2022-10-14T00:38:52.116Z,14.90
2022-10-14T00:41:23.476Z,14.82
2022-10-14T00:44:01.109Z,14.84
2022-10-14T00:46:30.921Z,14.80
2022-10-14T00:49:08.960Z,14.85
2022-10-14T00:51:38.409Z,14.88
2022-10-14T00:54:06.810Z,14.79
2022-10-14T00:56:36.022Z,14.80
2022-10-14T00:59:06.027Z,14.86
2022-10-14T01:01:34.667Z,14.89
2022-10-14T01:04:04.182Z,14.96
2022-10-14T01:06:44.741Z,15.02
2022-10-14T01:09:23.072Z,14.92
2022-10-14T01:12:27.392Z,14.81
2022-10-14T01:14:59.815Z,14.56
2022-10-14T01:17:36.753Z,14.51
2022-10-14T01:20:30.767Z,14.42
2022-10-14T01:23:13.936Z,14.44
2022-10-14T01:28:53.059Z,14.54
2022-10-14T01:31:24.901Z,14.35
2022-10-14T01:33:57.791Z,14.46
2022-10-14T01:36:33.472Z,14.52
2022-10-14T01:39:08.662Z,14.59
2022-10-14T01:41:40.745Z,14.61
2022-10-14T01:44:11.419Z,14.53
2022-10-14T01:46:47.987Z,14.51
2022-10-14T01:49:21.140Z,14.50
2022-10-14T01:51:52.038Z,14.43
2022-10-14T01:54:28.429Z,14.34
2022-10-14T01:57:00.122Z,14.34
2022-10-14T01:59:30.303Z,14.35
2022-10-14T02:01:59.670Z,14.29
2022-10-14T02:04:27.691Z,14.23
2022-10-14T02:07:03.943Z,14.03
2022-10-14T02:09:41.915Z,14.07
2022-10-14T02:12:22.030Z,14.07
2022-10-14T02:15:00.710Z,14.14
2022-10-14T02:17:34.185Z,14.10
2022-10-14T02:20:09.410Z,14.11
2022-10-14T02:22:49.322Z,14.09
2022-10-14T02:25:31.169Z,14.09
2022-10-14T02:28:00.020Z,14.12
2022-10-14T02:30:30.944Z,14.15
2022-10-14T02:33:02.221Z,14.08
2022-10-14T02:35:32.410Z,13.87
2022-10-14T02:38:06.299Z,13.82
2022-10-14T02:40:39.117Z,13.82
2022-10-14T02:43:09.960Z,13.73
2022-10-14T02:45:38.657Z,13.81
2022-10-14T02:48:08.996Z,13.84
2022-10-14T02:50:38.560Z,13.90
2022-10-14T02:53:06.498Z,13.87
2022-10-14T02:55:34.346Z,13.95
2022-10-14T02:58:02.268Z,13.84
2022-10-14T03:00:30.164Z,13.90
2022-10-14T03:02:58.044Z,14.00
2022-10-14T03:05:29.022Z,13.97
2022-10-14T03:07:57.119Z,14.04
2022-10-14T03:10:27.257Z,14.00
2022-10-14T03:12:55.800Z,14.02
2022-10-14T03:15:35.211Z,13.90
2022-10-14T03:18:06.723Z,13.87
2022-10-14T03:20:44.538Z,13.62
2022-10-14T03:23:14.666Z,13.51
2022-10-14T03:25:45.314Z,13.53
2022-10-14T03:28:19.553Z,13.47
2022-10-14T03:31:11.291Z,13.61
2022-10-14T03:34:08.491Z,13.70
2022-10-14T03:36:40.259Z,13.71
2022-10-14T03:39:08.362Z,13.72
2022-10-14T03:41:47.259Z,13.50
2022-10-14T03:44:18.580Z,13.31
2022-10-14T03:47:06.523Z,13.26
2022-10-14T03:49:35.236Z,13.40
2022-10-14T03:52:13.337Z,13.49
2022-10-14T03:54:43.056Z,13.34
2022-10-14T03:57:13.092Z,13.42
2022-10-14T03:59:46.981Z,13.52
2022-10-14T04:02:15.057Z,13.57
2022-10-14T04:04:44.893Z,13.53
2022-10-14T04:07:14.285Z,13.64
2022-10-14T04:09:49.525Z,13.54
2022-10-14T04:12:17.609Z,13.60
2022-10-14T04:15:01.915Z,13.55
2022-10-14T04:17:35.704Z,13.59
2022-10-14T04:20:11.059Z,13.21
2022-10-14T04:22:40.465Z,13.25
2022-10-14T04:25:09.811Z,13.38
2022-10-14T04:27:38.595Z,13.47
2022-10-14T04:30:11.373Z,13.42
2022-10-14T04:32:50.133Z,13.52
2022-10-14T04:35:19.317Z,13.55
2022-10-14T04:37:53.977Z,13.77
2022-10-14T04:40:26.117Z,13.58
2022-10-14T04:42:58.873Z,13.43
2022-10-14T04:45:35.413Z,13.65
2022-10-14T04:48:05.028Z,13.64
2022-10-14T04:50:37.585Z,13.64
2022-10-14T04:53:36.239Z,13.57
2022-10-14T04:56:26.979Z,13.42
2022-10-14T04:59:01.805Z,13.42
2022-10-14T05:01:50.672Z,13.42
2022-10-14T05:04:18.990Z,13.49
2022-10-14T05:06:49.544Z,13.41
2022-10-14T05:09:20.865Z,13.42
2022-10-14T05:11:48.903Z,13.40
2022-10-14T05:14:21.644Z,13.39
2022-10-14T05:16:55.022Z,13.40
2022-10-14T05:19:29.143Z,13.35
2022-10-14T05:21:57.171Z,13.36
2022-10-14T05:24:33.186Z,13.49
2022-10-14T05:27:03.067Z,13.54
2022-10-14T05:29:32.204Z,13.46
2022-10-14T05:32:01.025Z,13.49
2022-10-14T05:34:37.550Z,13.55
2022-10-14T05:37:09.185Z,13.58
2022-10-14T05:39:46.566Z,13.57
2022-10-14T05:42:16.625Z,13.72
2022-10-14T05:44:45.158Z,13.72
2022-10-14T05:47:14.397Z,13.68
2022-10-14T05:49:44.604Z,13.81
2022-10-14T05:52:13.646Z,13.85
2022-10-14T05:54:41.460Z,13.70
2022-10-14T05:57:11.246Z,13.68
2022-10-14T05:59:39.074Z,13.64
2022-10-14T06:02:08.707Z,13.49
2022-10-14T06:04:39.781Z,13.64
2022-10-14T06:07:10.226Z,13.53
2022-10-14T06:09:40.125Z,13.51
2022-10-14T06:12:08.660Z,13.51
2022-10-14T06:14:38.893Z,13.54
2022-10-14T06:17:07.842Z,13.69
2022-10-14T06:19:36.031Z,13.77
2022-10-14T06:22:03.967Z,13.85
2022-10-14T06:24:31.839Z,13.76
2022-10-14T06:26:59.661Z,13.83
2022-10-14T06:29:31.281Z,13.88
2022-10-14T06:32:00.566Z,13.86
2022-10-14T06:34:28.493Z,13.92
2022-10-14T06:37:01.258Z,13.91
2022-10-14T06:39:30.174Z,13.93
2022-10-14T06:41:58.049Z,13.98
2022-10-14T06:44:25.949Z,14.06
2022-10-14T06:46:53.815Z,13.98
2022-10-14T06:49:23.041Z,13.78
2022-10-14T06:51:50.861Z,13.85
2022-10-14T06:54:18.676Z,13.76
2022-10-14T06:56:46.590Z,13.70
2022-10-14T06:59:14.535Z,13.75
2022-10-14T07:01:42.533Z,13.74
2022-10-14T07:04:10.392Z,13.78
2022-10-14T07:06:39.675Z,13.78
2022-10-14T07:09:07.683Z,13.67
2022-10-14T07:11:36.347Z,13.78
2022-10-14T07:14:04.421Z,13.42
2022-10-14T07:16:33.195Z,13.60
2022-10-14T07:19:01.058Z,13.76
2022-10-14T07:21:29.030Z,13.85
2022-10-14T07:23:58.597Z,13.93
2022-10-14T07:26:26.517Z,13.99
2022-10-14T07:28:55.508Z,14.08
2022-10-14T07:31:23.585Z,14.07
2022-10-14T07:33:51.408Z,13.79
2022-10-14T07:36:22.543Z,13.93
2022-10-14T07:38:50.978Z,14.04
2022-10-14T07:41:22.538Z,14.07
2022-10-14T07:43:52.354Z,14.18
2022-10-14T07:46:28.961Z,14.22
2022-10-14T07:48:58.032Z,14.28
2022-10-14T07:51:27.258Z,14.37
2022-10-14T07:53:56.501Z,14.34
2022-10-14T07:56:25.834Z,14.36
2022-10-14T07:58:54.108Z,14.30
2022-10-14T08:01:24.275Z,14.27
2022-10-14T08:03:52.511Z,14.37
2022-10-14T08:06:20.585Z,14.37
2022-10-14T08:08:49.032Z,14.38
2022-10-14T08:11:19.121Z,14.34
2022-10-14T08:13:48.938Z,14.26
2022-10-14T08:16:19.330Z,14.30
2022-10-14T08:18:48.187Z,14.37
2022-10-14T08:21:16.741Z,14.39
2022-10-14T08:23:44.998Z,14.45
2022-10-14T08:26:20.846Z,14.53
2022-10-14T08:28:50.949Z,14.51
2022-10-14T08:31:18.978Z,14.42
2022-10-14T08:33:46.981Z,14.36
2022-10-14T08:36:15.905Z,14.43
2022-10-14T08:38:43.897Z,14.28
2022-10-14T08:41:26.792Z,14.49
2022-10-14T08:44:08.985Z,14.62
2022-10-14T08:46:40.532Z,14.65
2022-10-14T08:49:16.092Z,14.68
2022-10-14T08:51:47.515Z,14.69
2022-10-14T08:54:23.720Z,14.72
2022-10-14T08:56:51.658Z,14.73
2022-10-14T08:59:23.201Z,14.76
2022-10-14T09:01:54.877Z,14.80
2022-10-14T09:04:22.917Z,14.84
2022-10-14T09:06:53.117Z,14.77
2022-10-14T09:09:26.100Z,14.84
2022-10-14T09:11:57.897Z,14.82
2022-10-14T09:14:35.056Z,14.87
2022-10-14T09:17:07.532Z,14.87
2022-10-14T09:19:42.923Z,14.82
2022-10-14T09:22:15.384Z,14.75
2022-10-14T09:24:46.117Z,14.72
2022-10-14T09:27:17.626Z,14.68
2022-10-14T09:29:51.584Z,14.67
2022-10-14T09:32:28.702Z,14.69
2022-10-14T09:34:58.226Z,14.75
2022-10-14T09:37:28.294Z,14.75
2022-10-14T09:40:00.521Z,14.72
2022-10-14T09:42:41.824Z,14.72
2022-10-14T09:45:14.895Z,14.75
2022-10-14T09:47:47.696Z,14.80
2022-10-14T09:50:25.232Z,14.88
2022-10-14T09:52:56.973Z,14.81
2022-10-14T09:55:25.503Z,14.78
2022-10-14T09:58:17.059Z,14.79
2022-10-14T10:00:47.341Z,14.81
2022-10-14T10:03:27.016Z,14.84
2022-10-14T10:06:04.559Z,14.88
2022-10-14T10:08:32.801Z,14.88
2022-10-14T10:11:06.729Z,14.96
2022-10-14T10:13:41.641Z,15.04
2022-10-14T10:16:21.117Z,15.15
2022-10-14T10:18:49.173Z,15.16
2022-10-14T10:21:20.128Z,15.15
2022-10-14T10:23:54.081Z,15.12
2022-10-14T10:26:26.546Z,15.15
2022-10-14T10:28:57.987Z,15.17
2022-10-14T10:31:43.601Z,15.17
2022-10-14T10:34:38.077Z,15.26
2022-10-14T10:37:19.313Z,15.29
2022-10-14T10:40:03.453Z,15.17
2022-10-14T10:42:40.595Z,15.29
2022-10-14T10:45:17.431Z,15.29
2022-10-14T10:47:53.241Z,15.18
2022-10-14T10:50:32.559Z,15.18
2022-10-14T10:53:18.406Z,15.20
2022-10-14T10:55:55.815Z,15.26
2022-10-14T10:58:38.992Z,15.38
2022-10-14T11:01:26.116Z,15.38
2022-10-14T11:04:16.485Z,15.44
2022-10-14T11:07:08.273Z,15.44
2022-10-14T11:10:14.174Z,15.41
2022-10-14T11:12:53.512Z,15.37
2022-10-14T11:15:33.468Z,15.39
2022-10-14T11:18:04.762Z,15.38
2022-10-14T11:20:44.782Z,15.43
2022-10-14T11:23:43.657Z,15.54
2022-10-14T11:26:26.643Z,15.54
2022-10-14T11:29:03.599Z,15.55
2022-10-14T11:31:40.471Z,15.56
2022-10-14T11:34:23.889Z,15.61
2022-10-14T11:37:04.201Z,15.61
2022-10-14T11:39:40.195Z,15.55
2022-10-14T11:42:27.034Z,15.52
2022-10-14T11:45:10.154Z,15.56
2022-10-14T11:47:42.124Z,15.60
2022-10-14T11:50:18.318Z,15.64
2022-10-14T11:53:02.613Z,15.67
2022-10-14T11:55:36.241Z,15.67
2022-10-14T11:58:11.640Z,15.68
2022-10-14T12:00:44.727Z,15.71
2022-10-14T12:03:18.204Z,15.76
2022-10-14T12:05:50.061Z,15.95
2022-10-14T12:08:28.411Z,15.78
2022-10-14T12:11:04.175Z,15.73
2022-10-14T12:13:37.439Z,15.70
2022-10-14T12:16:11.396Z,15.53
2022-10-14T12:18:39.530Z,15.59
2022-10-14T12:21:16.394Z,15.56
2022-10-14T12:23:50.908Z,15.56
2022-10-14T12:26:41.282Z,15.56
2022-10-14T12:29:14.318Z,15.60
2022-10-14T12:31:42.355Z,15.51
2022-10-14T12:34:28.682Z,15.56
2022-10-14T12:36:56.665Z,15.51
2022-10-14T12:39:35.979Z,15.58
2022-10-14T12:42:06.968Z,15.56
2022-10-14T12:44:43.460Z,15.59
2022-10-14T12:47:19.911Z,15.65
2022-10-14T12:49:50.520Z,15.66
2022-10-14T12:52:24.852Z,15.70
2022-10-14T12:54:54.514Z,15.73
2022-10-14T12:57:29.375Z,15.76
2022-10-14T13:00:00.454Z,15.77
2022-10-14T13:02:33.480Z,15.80
2022-10-14T13:05:04.048Z,15.83
2022-10-14T13:07:44.422Z,15.88
2022-10-14T13:10:48.509Z,15.86
2022-10-14T13:13:52.719Z,15.91
2022-10-14T13:17:03.231Z,15.94
2022-10-14T13:19:45.751Z,15.90
2022-10-14T13:22:36.739Z,15.91
2022-10-14T13:25:12.111Z,15.89
2022-10-14T13:28:00.626Z,15.94
2022-10-14T13:30:36.160Z,15.95
2022-10-14T13:33:13.434Z,15.90
2022-10-14T13:35:50.044Z,15.92
2022-10-14T13:38:20.350Z,15.90
2022-10-14T13:40:51.963Z,15.91
2022-10-14T13:43:26.798Z,15.89
2022-10-14T13:46:03.842Z,15.89
2022-10-14T13:48:34.541Z,15.88
2022-10-14T13:51:36.663Z,15.94
2022-10-14T13:54:17.472Z,15.97
2022-10-14T13:56:45.903Z,15.98
2022-10-14T13:59:44.338Z,16.02
2022-10-14T14:02:15.849Z,16.06
2022-10-14T14:04:51.778Z,16.07
2022-10-14T14:07:58.927Z,16.10
2022-10-14T14:10:13.352Z,16.15
2022-10-14T14:12:44.046Z,16.17
2022-10-14T14:15:20.819Z,16.17
2022-10-14T14:17:48.805Z,16.16
2022-10-14T14:20:21.369Z,16.13
2022-10-14T14:22:51.423Z,16.17
2022-10-14T14:25:34.852Z,16.20
2022-10-14T14:28:07.037Z,16.20
2022-10-14T14:30:39.640Z,16.16
2022-10-14T14:33:12.212Z,16.21
2022-10-14T14:35:41.721Z,16.26
2022-10-14T14:38:25.425Z,16.31
2022-10-14T14:41:06.846Z,16.23
2022-10-14T14:43:44.721Z,16.20
2022-10-14T14:46:20.756Z,16.31
2022-10-14T14:48:54.835Z,16.31
2022-10-14T14:51:23.628Z,16.30
2022-10-14T14:53:54.272Z,16.28
2022-10-14T14:56:27.395Z,16.26
2022-10-14T14:58:57.712Z,16.27
2022-10-14T15:01:28.917Z,16.30
2022-10-14T15:04:12.621Z,16.28
2022-10-14T15:06:50.767Z,16.24
2022-10-14T15:09:24.561Z,16.25
2022-10-14T15:11:55.215Z,16.20
2022-10-14T15:14:30.804Z,16.27
2022-10-14T15:17:01.153Z,16.23
2022-10-14T15:19:38.225Z,16.25
2022-10-14T15:22:12.770Z,16.25
2022-10-14T15:24:58.857Z,16.19
2022-10-14T15:27:46.365Z,16.17
2022-10-14T15:30:34.910Z,16.18
2022-10-14T15:33:15.011Z,16.20
2022-10-14T15:35:43.698Z,16.20
2022-10-14T15:38:16.209Z,16.14
2022-10-14T15:40:45.334Z,16.16
2022-10-14T15:43:17.584Z,16.16
2022-10-14T15:46:11.602Z,16.12
2022-10-14T15:48:41.981Z,16.06
2022-10-14T15:51:15.352Z,16.17
2022-10-14T15:53:43.561Z,16.18
2022-10-14T15:56:11.413Z,16.15
2022-10-14T15:58:40.126Z,16.10
2022-10-14T16:01:08.639Z,16.15
2022-10-14T16:03:40.874Z,16.22
2022-10-14T16:06:14.599Z,16.18
2022-10-14T16:08:43.136Z,16.15
2022-10-14T16:11:20.872Z,16.19
2022-10-14T16:13:48.747Z,16.20
2022-10-14T16:16:22.181Z,16.27
2022-10-14T16:18:50.302Z,16.26
2022-10-14T16:21:19.502Z,16.22
2022-10-14T16:23:47.353Z,16.18
2022-10-14T16:26:15.336Z,16.15
2022-10-14T16:28:43.230Z,16.18
2022-10-14T16:31:13.456Z,16.21
2022-10-14T16:33:44.744Z,16.23
2022-10-14T16:36:15.649Z,16.44
2022-10-14T16:38:45.220Z,16.24
2022-10-14T16:41:13.427Z,16.21
2022-10-14T16:43:41.348Z,16.07
2022-10-14T16:46:11.854Z,16.09
2022-10-14T16:48:42.634Z,16.09
2022-10-14T16:51:10.580Z,16.17
2022-10-14T16:53:46.667Z,16.16
2022-10-14T16:56:32.194Z,16.18
2022-10-14T16:59:01.005Z,16.09
2022-10-14T17:01:29.653Z,16.16
2022-10-14T17:03:58.157Z,16.15
2022-10-14T17:06:26.953Z,16.09
2022-10-14T17:08:55.002Z,16.10
2022-10-14T17:11:24.792Z,16.11
2022-10-14T17:13:53.765Z,16.11
2022-10-14T17:16:22.114Z,16.11
2022-10-14T17:18:50.443Z,16.16
2022-10-14T17:21:18.417Z,16.18
2022-10-14T17:23:46.589Z,16.21
2022-10-14T17:26:20.546Z,16.18
2022-10-14T17:28:50.556Z,16.16
2022-10-14T17:31:20.666Z,16.12
2022-10-14T17:33:48.626Z,16.21
2022-10-14T17:36:19.568Z,16.19
2022-10-14T17:38:48.650Z,16.22
2022-10-14T17:41:16.704Z,16.24
2022-10-14T17:43:45.863Z,16.20
2022-10-14T17:46:15.114Z,16.18
2022-10-14T17:48:43.563Z,16.15
2022-10-14T17:51:12.479Z,16.23
2022-10-14T17:53:41.322Z,16.31
2022-10-14T17:56:11.778Z,16.28
2022-10-14T17:58:39.774Z,16.23
2022-10-14T18:01:08.795Z,16.22
2022-10-14T18:03:41.996Z,16.14
2022-10-14T18:06:11.313Z,16.00
2022-10-14T18:08:40.313Z,15.96
2022-10-14T18:11:11.085Z,16.11
2022-10-14T18:16:10.478Z,16.13
2022-10-14T18:18:40.023Z,16.08
2022-10-14T18:21:08.513Z,16.03
2022-10-14T18:23:39.086Z,16.02
2022-10-14T18:26:13.253Z,16.01
2022-10-14T18:28:44.337Z,15.82
2022-10-14T18:31:14.189Z,15.75
2022-10-14T18:33:44.963Z,15.75
2022-10-14T18:36:15.450Z,15.74
2022-10-14T18:38:43.804Z,15.85
2022-10-14T18:41:13.650Z,15.80
2022-10-14T18:43:42.359Z,15.72
2022-10-14T18:46:14.148Z,15.79
2022-10-14T18:48:44.241Z,15.83
2022-10-14T18:51:12.940Z,15.84
2022-10-14T18:53:42.424Z,15.84
2022-10-14T18:56:15.296Z,15.89
2022-10-14T18:58:43.837Z,15.89
2022-10-14T19:01:12.562Z,15.93
2022-10-14T19:03:41.126Z,15.86
2022-10-14T19:06:12.570Z,15.87
2022-10-14T19:08:42.277Z,15.76
2022-10-14T19:11:16.188Z,15.77
2022-10-14T19:13:45.174Z,15.54
2022-10-14T19:16:16.985Z,15.60
2022-10-14T19:18:44.858Z,15.65
2022-10-14T19:21:16.229Z,15.54
2022-10-14T19:23:45.073Z,15.61
2022-10-14T19:28:43.687Z,15.40
2022-10-14T19:31:13.356Z,15.50
2022-10-14T19:33:43.232Z,15.55
2022-10-14T19:36:12.152Z,15.53
2022-10-14T19:38:47.640Z,15.54
2022-10-14T19:41:15.450Z,15.58
2022-10-14T19:43:43.297Z,15.56
2022-10-14T19:46:13.356Z,15.57
2022-10-14T19:48:41.488Z,15.55
2022-10-14T19:51:10.172Z,15.62
2022-10-14T19:53:38.713Z,15.51
2022-10-14T19:56:10.138Z,15.55
2022-10-14T19:58:41.005Z,15.48
2022-10-14T20:01:14.208Z,15.46
2022-10-14T20:03:42.423Z,15.53
2022-10-14T20:06:11.357Z,15.48
2022-10-14T20:08:39.610Z,15.53
2022-10-14T20:11:12.850Z,15.55
2022-10-14T20:13:41.198Z,15.36
2022-10-14T20:16:10.519Z,15.35
2022-10-14T20:18:38.563Z,15.35
2022-10-14T20:21:08.283Z,15.35
2022-10-14T20:23:38.217Z,15.38
2022-10-14T20:26:09.583Z,15.35
2022-10-14T20:28:37.866Z,15.13
2022-10-14T20:31:08.497Z,15.14
2022-10-14T20:33:36.513Z,15.19
2022-10-14T20:36:07.238Z,15.27
2022-10-14T20:38:35.216Z,15.32
2022-10-14T20:41:08.754Z,15.20
2022-10-14T20:43:36.845Z,15.29
2022-10-14T20:46:04.920Z,15.35
2022-10-14T20:48:33.146Z,15.26
2022-10-14T20:51:00.986Z,15.30
2022-10-14T20:53:28.914Z,15.37
2022-10-14T20:56:02.779Z,15.36
2022-10-14T20:58:32.413Z,15.26
2022-10-14T21:01:08.168Z,15.29
2022-10-14T21:03:36.555Z,15.30
2022-10-14T21:06:05.905Z,15.33
2022-10-14T21:08:34.604Z,15.28
2022-10-14T21:11:07.019Z,15.22
2022-10-14T21:13:38.670Z,15.28
2022-10-14T21:16:14.123Z,15.31
2022-10-14T21:18:45.186Z,15.24
2022-10-14T21:21:16.538Z,15.25
2022-10-14T21:23:45.457Z,15.21
2022-10-14T21:26:13.327Z,15.27
2022-10-14T21:28:42.889Z,15.19
2022-10-14T21:31:13.690Z,15.08
2022-10-14T21:33:44.403Z,15.12
2022-10-14T21:36:15.209Z,15.15
2022-10-14T21:38:43.277Z,15.11
2022-10-14T21:41:11.863Z,15.14
2022-10-14T21:43:40.635Z,15.11
2022-10-14T21:46:12.693Z,15.05
2022-10-14T21:48:41.498Z,15.01
2022-10-14T21:51:11.423Z,15.10
2022-10-14T21:53:40.173Z,14.99
2022-10-14T21:56:08.847Z,15.14
2022-10-14T21:58:37.638Z,15.15
2022-10-14T22:01:07.716Z,15.20
2022-10-14T22:03:38.485Z,15.15
2022-10-14T22:06:08.823Z,15.19
2022-10-14T22:08:38.828Z,15.17
2022-10-14T22:11:07.619Z,15.17
2022-10-14T22:13:36.467Z,15.06
2022-10-14T22:16:04.424Z,15.15
2022-10-14T22:18:32.513Z,14.97
2022-10-14T22:21:05.287Z,15.15
2022-10-14T22:23:33.525Z,15.20
2022-10-14T22:26:02.490Z,15.21
2022-10-14T22:28:30.982Z,15.22
2022-10-14T22:31:05.300Z,15.26
2022-10-14T22:33:35.106Z,15.17
2022-10-14T22:36:09.071Z,15.21
2022-10-14T22:38:37.922Z,15.03
2022-10-14T22:41:07.114Z,15.18
2022-10-14T22:43:35.784Z,15.20
2022-10-14T22:46:06.114Z,15.15
2022-10-14T22:48:34.756Z,15.18
2022-10-14T22:51:04.174Z,15.27
2022-10-14T22:53:33.799Z,15.15
2022-10-14T22:56:02.025Z,15.18
2022-10-14T22:58:30.179Z,15.21
2022-10-14T23:01:05.766Z,15.27
2022-10-14T23:03:34.598Z,15.35
2022-10-14T23:06:03.563Z,15.35
2022-10-14T23:08:33.245Z,15.12
2022-10-14T23:11:01.791Z,15.11
2022-10-14T23:13:30.591Z,15.06
2022-10-14T23:16:00.246Z,15.13
2022-10-14T23:18:29.707Z,15.03
2022-10-14T23:20:57.656Z,15.04
2022-10-14T23:23:25.529Z,15.04
2022-10-14T23:25:54.743Z,15.05
2022-10-14T23:28:22.669Z,15.21
2022-10-14T23:30:50.562Z,15.09
2022-10-14T23:33:18.489Z,15.11
2022-10-14T23:35:46.336Z,15.13
2022-10-14T23:38:14.334Z,15.05
2022-10-14T23:40:42.296Z,15.01
2022-10-14T23:43:11.550Z,15.16
2022-10-14T23:45:39.437Z,15.13
2022-10-14T23:48:07.967Z,15.22
2022-10-14T23:50:35.778Z,15.20
2022-10-14T23:53:03.597Z,15.14
2022-10-14T23:55:31.547Z,15.22
2022-10-14T23:57:59.422Z,15.29
